Rodby, Denmark
Current Conditions -  °F | °C
As of 4:50 PM on Saturday 25 Oct 2014 (Local Time) from EDHK Reporting Station
Broken Clouds Broken Clouds  
Wind Chill: 55°   Ceiling: 4400
Heat Index: 55°   Visibility: 5mi
Dew Point: 52°   Wind: 8mph
Humidity: 88%   Direction: 220°SW
Pressure: 30.03"   Gusts: NA
Location:  54.69°N, 11.39°E
Report Text: EDHK 251450Z 22007KT 8000 FEW007 SCT011 BKN044 13/11 Q1017
Loading
Personal Weather Stations






























Interactive Weather Map
Tropical Storm Tracking
New forecast layout! Learn more

10-Day Weather Forecast

Advertisements
Track Severe Weather on mobile